createdAt,value
2023-01-18T00:01:52.571Z,83.40
2023-01-18T00:05:16.246Z,82.90
2023-01-18T00:08:42.194Z,82.50
2023-01-18T00:12:05.832Z,82.40
2023-01-18T00:15:31.893Z,82.70
2023-01-18T00:18:57.493Z,83.30
2023-01-18T00:22:21.043Z,84.40
2023-01-18T00:25:44.506Z,83.70
2023-01-18T00:29:10.378Z,83.60
2023-01-18T00:32:35.831Z,83.70
2023-01-18T00:36:01.570Z,83.80
2023-01-18T00:39:25.023Z,84.10
2023-01-18T00:43:17.410Z,84.20
2023-01-18T00:46:41.017Z,84.20
2023-01-18T00:50:07.324Z,84.20
2023-01-18T00:53:31.031Z,84.20
2023-01-18T00:56:54.520Z,84.40
2023-01-18T01:00:19.699Z,84.20
2023-01-18T01:04:01.299Z,84.20
2023-01-18T01:07:26.325Z,84.10
2023-01-18T01:10:52.379Z,84.00
2023-01-18T01:14:33.612Z,84.10
2023-01-18T01:18:14.737Z,84.20
2023-01-18T01:21:56.257Z,83.80
2023-01-18T01:25:38.610Z,84.60
2023-01-18T01:29:02.071Z,83.20
2023-01-18T01:32:25.699Z,82.90
2023-01-18T01:35:50.325Z,82.80
2023-01-18T01:39:13.781Z,82.70
2023-01-18T01:42:38.629Z,82.90
2023-01-18T01:46:02.954Z,83.00
2023-01-18T01:49:33.652Z,83.30
2023-01-18T01:52:58.675Z,83.40
2023-01-18T01:56:23.548Z,83.50
2023-01-18T01:59:56.455Z,83.50
2023-01-18T02:03:20.194Z,84.90
2023-01-18T02:06:43.747Z,83.80
2023-01-18T02:10:09.013Z,84.40
2023-01-18T02:13:32.639Z,83.60
2023-01-18T02:17:20.334Z,83.50
2023-01-18T02:21:13.865Z,83.30
2023-01-18T02:25:26.939Z,83.40
2023-01-18T02:29:02.190Z,83.50
2023-01-18T02:32:43.380Z,83.60
2023-01-18T02:36:08.121Z,83.90
2023-01-18T02:39:43.365Z,83.60
2023-01-18T02:43:28.899Z,83.30
2023-01-18T02:46:53.825Z,83.30
2023-01-18T02:50:24.917Z,83.30
2023-01-18T02:53:49.480Z,83.70
2023-01-18T02:57:17.778Z,83.70
2023-01-18T03:00:48.183Z,83.40
2023-01-18T03:04:21.205Z,83.20
2023-01-18T03:07:54.429Z,83.40
2023-01-18T03:11:27.755Z,83.70
2023-01-18T03:15:05.054Z,84.00
2023-01-18T03:18:59.973Z,83.90
2023-01-18T03:22:42.678Z,83.80
2023-01-18T03:26:09.561Z,83.90
2023-01-18T03:29:51.337Z,84.00
2023-01-18T03:33:32.147Z,84.10
2023-01-18T03:37:02.498Z,84.20
2023-01-18T03:40:31.822Z,83.90
2023-01-18T03:44:02.988Z,83.50
2023-01-18T03:47:27.419Z,83.70
2023-01-18T03:50:56.116Z,83.80
2023-01-18T03:54:29.081Z,84.10
2023-01-18T03:58:01.864Z,84.20
2023-01-18T04:01:26.921Z,84.20
2023-01-18T04:04:58.455Z,84.20
2023-01-18T04:08:22.012Z,84.30
2023-01-18T04:11:45.530Z,84.30
2023-01-18T04:15:12.103Z,84.60
2023-01-18T04:18:35.570Z,85.40
2023-01-18T04:21:58.995Z,85.70
2023-01-18T04:25:23.083Z,85.30
2023-01-18T04:28:46.441Z,85.70
2023-01-18T04:32:11.194Z,85.30
2023-01-18T04:35:34.746Z,85.00
2023-01-18T04:39:04.471Z,85.60
2023-01-18T04:42:30.850Z,84.40
2023-01-18T04:45:55.546Z,84.10
2023-01-18T04:49:20.512Z,84.10
2023-01-18T04:52:43.988Z,84.10
2023-01-18T04:56:08.169Z,83.90
2023-01-18T04:59:31.672Z,84.30
2023-01-18T05:02:55.268Z,84.40
2023-01-18T05:06:20.907Z,84.50
2023-01-18T05:09:44.510Z,84.70
2023-01-18T05:13:08.128Z,84.50
2023-01-18T05:16:32.122Z,84.60
2023-01-18T05:19:55.853Z,84.50
2023-01-18T05:23:20.701Z,84.30
2023-01-18T05:26:44.859Z,84.10
2023-01-18T05:30:10.646Z,83.20
2023-01-18T05:33:34.207Z,82.70
2023-01-18T05:36:57.788Z,83.70
2023-01-18T05:40:22.640Z,83.60
2023-01-18T05:43:46.130Z,83.70
2023-01-18T05:47:09.553Z,84.10
2023-01-18T05:50:33.013Z,84.40
2023-01-18T05:54:09.247Z,84.90
2023-01-18T05:57:34.060Z,85.10
2023-01-18T06:00:58.454Z,85.00
2023-01-18T06:04:22.175Z,84.80
2023-01-18T06:07:45.641Z,83.50
2023-01-18T06:14:35.625Z,83.70
2023-01-18T06:21:23.753Z,82.80
2023-01-18T06:24:47.499Z,83.10
2023-01-18T06:38:26.547Z,84.20
2023-01-18T06:45:14.166Z,84.30
2023-01-18T06:48:38.969Z,84.10
2023-01-18T06:52:02.638Z,84.10
2023-01-18T06:55:26.274Z,84.50
2023-01-18T07:02:16.794Z,83.90
2023-01-18T07:19:22.895Z,84.00
2023-01-18T07:22:52.090Z,83.70
2023-01-18T07:26:18.118Z,83.10
2023-01-18T07:29:41.678Z,83.40
2023-01-18T07:33:07.021Z,83.10
2023-01-18T07:36:30.927Z,84.80
2023-01-18T07:39:55.883Z,85.20
2023-01-18T07:43:19.899Z,83.80
2023-01-18T07:46:43.654Z,84.70
2023-01-18T07:50:08.083Z,83.50
2023-01-18T07:53:33.715Z,85.20
2023-01-18T07:56:59.537Z,86.00
2023-01-18T08:00:25.823Z,85.40
2023-01-18T08:03:50.869Z,84.20
2023-01-18T08:10:39.247Z,83.60
2023-01-18T08:14:04.300Z,83.40
2023-01-18T08:17:29.778Z,82.80
2023-01-18T08:20:55.157Z,82.00
2023-01-18T08:24:18.807Z,83.20
2023-01-18T08:27:42.711Z,83.40
2023-01-18T08:31:11.385Z,84.10
2023-01-18T08:34:35.479Z,83.80
2023-01-18T08:38:01.011Z,83.90
2023-01-18T08:41:28.334Z,84.00
2023-01-18T08:44:53.785Z,84.00
2023-01-18T08:48:19.049Z,84.60
2023-01-18T08:51:42.561Z,84.60
2023-01-18T08:55:08.315Z,84.80
2023-01-18T08:58:33.157Z,85.10
2023-01-18T09:05:22.428Z,84.50
2023-01-18T09:12:13.189Z,84.40
2023-01-18T09:15:36.647Z,84.60
2023-01-18T09:22:26.143Z,84.70
2023-01-18T09:25:50.768Z,84.60
2023-01-18T09:29:14.342Z,85.30
2023-01-18T09:32:38.124Z,85.50
2023-01-18T09:36:05.989Z,85.20
2023-01-18T09:39:37.628Z,85.20
2023-01-18T09:43:19.531Z,85.20
2023-01-18T09:46:46.301Z,85.40
2023-01-18T09:50:17.624Z,85.60
2023-01-18T09:54:02.988Z,85.70
2023-01-18T09:57:47.633Z,84.90
2023-01-18T10:04:45.942Z,84.90
2023-01-18T10:08:18.210Z,84.30
2023-01-18T10:15:22.328Z,85.20
2023-01-18T10:25:54.376Z,85.00
2023-01-18T10:29:35.443Z,85.90
2023-01-18T10:46:57.118Z,90.90
2023-01-18T10:50:33.864Z,85.40
2023-01-18T10:53:57.555Z,90.60
2023-01-18T10:57:27.919Z,84.20
2023-01-18T11:04:26.057Z,84.70
2023-01-18T11:08:12.447Z,84.00
2023-01-18T11:11:49.969Z,82.80
2023-01-18T11:26:00.654Z,84.60
2023-01-18T11:43:22.723Z,83.60
2023-01-18T12:01:21.656Z,83.20
2023-01-18T12:12:42.164Z,83.90
2023-01-18T12:16:18.447Z,83.80
2023-01-18T12:24:08.242Z,82.70
2023-01-18T12:27:44.682Z,82.30
2023-01-18T13:06:22.005Z,83.90
2023-01-18T13:13:23.335Z,84.70
2023-01-18T13:20:36.281Z,83.50
2023-01-18T13:27:37.561Z,83.50
2023-01-18T13:34:34.594Z,82.70
2023-01-18T13:41:29.304Z,82.10
2023-01-18T13:45:22.209Z,81.50
2023-01-18T13:52:32.316Z,82.10
2023-01-18T13:59:53.531Z,82.40
2023-01-18T14:06:51.232Z,82.10
2023-01-18T14:14:23.555Z,82.00
2023-01-18T14:25:25.747Z,79.30
2023-01-18T14:42:49.906Z,81.30
2023-01-18T14:56:43.122Z,81.10
2023-01-18T15:03:40.960Z,81.70
2023-01-18T15:14:00.139Z,81.70
2023-01-18T15:17:27.370Z,80.90
2023-01-18T15:24:24.764Z,81.60
2023-01-18T15:31:17.901Z,80.90
2023-01-18T15:41:35.647Z,81.20
2023-01-18T15:48:27.064Z,81.20
2023-01-18T15:55:24.889Z,80.90
2023-01-18T16:05:43.543Z,81.20
2023-01-18T16:09:21.187Z,81.00
2023-01-18T16:23:14.233Z,80.90
2023-01-18T16:26:37.903Z,80.90
2023-01-18T16:30:07.527Z,80.80
2023-01-18T16:33:32.449Z,80.60
2023-01-18T16:36:55.944Z,80.70
2023-01-18T16:40:23.195Z,80.30
2023-01-18T16:47:13.452Z,80.10
2023-01-18T16:57:29.571Z,80.00
2023-01-18T17:01:00.864Z,79.70
2023-01-18T17:04:26.806Z,79.50
2023-01-18T17:18:08.249Z,79.20
2023-01-18T17:24:56.982Z,79.20
2023-01-18T17:31:52.141Z,79.50
2023-01-18T18:02:33.973Z,78.90
2023-01-18T18:16:18.259Z,79.00
2023-01-18T18:40:10.363Z,79.00
2023-01-18T18:46:58.020Z,79.20
2023-01-18T19:10:50.576Z,79.50
2023-01-18T19:17:38.649Z,78.90
2023-01-18T19:21:02.287Z,78.60
2023-01-18T19:31:19.019Z,77.70
2023-01-18T19:51:47.168Z,77.50
2023-01-18T19:58:37.731Z,77.50
2023-01-18T20:05:25.402Z,77.40
2023-01-18T20:19:13.488Z,76.60
2023-01-18T20:26:01.539Z,76.60
2023-01-18T20:43:02.897Z,77.30
2023-01-18T20:49:52.031Z,77.70
2023-01-18T21:06:52.528Z,77.40
2023-01-18T21:20:30.080Z,77.10
2023-01-18T21:23:54.870Z,77.20
2023-01-18T21:30:42.566Z,76.90
2023-01-18T21:58:56.053Z,76.20
2023-01-18T22:02:19.610Z,75.80
2023-01-18T22:12:32.640Z,75.80
2023-01-18T22:15:57.551Z,75.90
2023-01-18T22:26:10.081Z,76.20
2023-01-18T22:53:26.250Z,75.70
2023-01-18T23:00:15.746Z,75.70
2023-01-18T23:03:39.321Z,75.90
2023-01-18T23:07:04.217Z,75.90
2023-01-18T23:14:12.344Z,75.80
2023-01-18T23:31:20.194Z,75.10
2023-01-18T23:34:44.171Z,75.00
2023-01-18T23:49:12.987Z,74.80
2023-01-18T23:52:54.091Z,74.80
